Aviation Digital Data Service (ADDS)

Output produced by METARs form (1256 UTC 25 September 2018)
found at http://www.aviationweather.gov/metar/data/
 
TAF LRTZ 251100Z 2512/2612 31016KT 9999 SCT100 
     TEMPO 2512/2516 SCT030 BKN200 
     BECMG 2606/2608 35015G25KT FEW030
       
LRCK 251230Z 32007KT 9999 FEW045 SCT050CB 16/02 Q1025 NOSIG
TAF LRCK 251100Z 2512/2612 31012KT 9999 SCT045 
     TEMPO 2512/2516 32015G25KT SCT045CB 
     BECMG 2606/2608 01014KT 
     TEMPO 2609/2612 01015G25KT
       
LRTC 251230Z 33017KT 9999 SCT048 FEW050CB 16/02 Q1025
TAF LRTC 251100Z 2512/2521 33014KT 9999 SCT045 
     TEMPO 2512/2515 SCT045CB
       
TAF LRFT 251100Z 2512/2612 31016KT 9999 SCT050 BKN080 
     BECMG 2517/2519 36012KT SCT150
       
TAF LRBO 251100Z 2512/2612 32012KT 9999 BKN060 
     TEMPO 2513/2517 7000 RA SCT034 BKN050 
     BECMG 2520/2522 34005KT SKC
       
LRBC 251230Z 29011KT 9999 SCT050 12/04 Q1027
TAF LRBC 251100Z 2512/2521 32012KT 9999 SCT050 
     TEMPO 2512/2516 32016G26KT SCT045CB
       
LRIA 251230Z 32014KT 9999 SCT035CB SCT042 12/00 Q1026
TAF LRIA 251100Z 2512/2521 31018KT 9999 SCT035 
     TEMPO 2512/2516 31020G30KT SCT030CB
       
LRSV 251230Z 33021KT 9999 FEW030CB 09/01 Q1026 R16/29//95
TAF LRSV 251100Z 2512/2521 32016KT 9999 SCT030 
     TEMPO 2512/2516 32020G30KT SCT030CB
       
LROP 251230Z 02007KT 360V070 CAVOK 17/01 Q1026 NOSIG
TAF LROP 251100Z 2512/2612 32008KT CAVOK 
     BECMG 2514/2516 03010KT
       
LRBS 251230Z VRB03KT CAVOK 17/M03 Q1026 NOSIG
TAF LRBS 251100Z 2512/2612 VRB04KT CAVOK 
     BECMG 2514/2516 03010KT
       
LRCV 251230Z 33012KT CAVOK 18/M00 Q1027
TAF LRCV 251100Z 2512/2521 29012KT CAVOK 
     BECMG 2514/2516 04010KT
       
LRSB 251230Z 25011KT 9999 FEW036CB SCT042 11/03 Q1029 NOSIG
TAF LRSB 251100Z 2512/2612 30008KT 9999 SCT040 
     TEMPO 2512/2514 SCT035CB
       
LRAR 251230Z 02007KT 330V060 9999 BKN047 FEW060CB 14/02 Q1032
TAF LRAR 251100Z 2512/2521 01006KT 9999 BKN045
       
LRCL 251230Z 31008KT 280V340 9999 SCT037CB 10/02 Q1030 R07/15//95
TAF COR LRCL 251134Z 2512/2521 31012KT 9999 SCT045 
     PROB40 
     TEMPO 2512/2515 SCT035CB
       
LRTR 251230Z 36007KT 330V030 9999 SCT049 13/02 Q1032
TAF LRTR 251100Z 2512/2612 36008KT CAVOK
       
LRTM 251230Z 31012KT 270V350 9999 FEW032CB SCT035 13/01 Q1029
TAF LRTM 251100Z 2512/2521 30010KT 9999 SCT040 
     PROB40 
     TEMPO 2512/2515 SCT035CB
       
LRBM 251230Z 28009KT 260V320 9999 FEW040CB SCT044 12/02 Q1030
TAF LRBM 251100Z 2512/2521 29008KT 9999 SCT045 
     TEMPO 2512/2515 SCT035CB
       
LRSM 251230Z 35015KT 9999 SCT049 13/03 Q1031 R01/21//95
TAF LRSM 251100Z 2512/2521 34014KT CAVOK
       
LROD 251230Z 35010KT 310V020 9999 FEW045CB BKN048 15/M02 Q1032
TAF LROD 251100Z 2512/2521 02008KT CAVOK
       
TAF LRCT 251100Z 2512/2612 33016KT BKN040 
     BECMG 2517/2519 32006KT FEW080